createdAt,value
2023-11-27T00:01:06.344Z,94964.73
2023-11-27T00:03:35.908Z,94962.16
2023-11-27T00:06:04.269Z,94956.84
2023-11-27T00:08:32.312Z,94961.91
2023-11-27T00:11:01.515Z,94961.15
2023-11-27T00:13:30.644Z,94952.95
2023-11-27T00:15:58.828Z,94951.89
2023-11-27T00:18:26.928Z,94950.39
2023-11-27T00:20:55.016Z,94946.14
2023-11-27T00:23:24.691Z,94955.16
2023-11-27T00:25:53.104Z,94954.13
2023-11-27T00:28:21.396Z,94959.36
2023-11-27T00:30:49.621Z,94954.41
2023-11-27T00:33:17.931Z,94964.57
2023-11-27T00:35:47.150Z,94959.08
2023-11-27T00:38:15.347Z,94958.73
2023-11-27T00:40:43.993Z,94956.36
2023-11-27T00:43:12.333Z,94951.04
2023-11-27T00:45:40.534Z,94949.38
2023-11-27T00:48:09.085Z,94946.17
2023-11-27T00:50:37.501Z,94946.89
2023-11-27T00:53:05.612Z,94939.03
2023-11-27T00:55:33.798Z,94939.14
2023-11-27T00:58:01.950Z,94938.18
2023-11-27T01:00:30.341Z,94933.35
2023-11-27T01:02:58.875Z,94935.20
2023-11-27T01:05:27.301Z,94934.44
2023-11-27T01:07:55.514Z,94932.70
2023-11-27T01:10:23.670Z,94931.83
2023-11-27T01:12:52.285Z,94933.91
2023-11-27T01:15:22.917Z,94932.80
2023-11-27T01:17:51.339Z,94932.59
2023-11-27T01:20:21.035Z,94928.02
2023-11-27T01:22:50.197Z,94920.99
2023-11-27T01:25:18.457Z,94917.67
2023-11-27T01:27:46.694Z,94916.52
2023-11-27T01:30:16.701Z,94915.73
2023-11-27T01:32:45.294Z,94914.16
2023-11-27T01:35:13.628Z,94912.64
2023-11-27T01:37:42.412Z,94913.18
2023-11-27T01:40:11.740Z,94910.55
2023-11-27T01:42:40.007Z,94907.23
2023-11-27T01:45:09.124Z,94907.35
2023-11-27T01:47:37.581Z,94905.14
2023-11-27T01:50:08.881Z,94896.23
2023-11-27T01:52:40.183Z,94897.03
2023-11-27T01:55:09.637Z,94887.87
2023-11-27T01:57:38.119Z,94888.85
2023-11-27T02:00:07.331Z,94882.96
2023-11-27T02:02:46.976Z,94879.11
2023-11-27T02:05:15.610Z,94874.20
2023-11-27T02:07:44.602Z,94869.94
2023-11-27T02:10:13.812Z,94868.83
2023-11-27T02:12:42.117Z,94863.60
2023-11-27T02:15:11.112Z,94863.42
2023-11-27T02:17:39.736Z,94863.58
2023-11-27T02:20:10.389Z,94858.70
2023-11-27T02:22:38.841Z,94864.17
2023-11-27T02:25:08.268Z,94854.76
2023-11-27T02:27:36.573Z,94854.42
2023-11-27T02:30:05.420Z,94849.00
2023-11-27T02:32:34.041Z,94849.27
2023-11-27T02:35:02.126Z,94846.35
2023-11-27T02:37:30.353Z,94842.88
2023-11-27T02:39:58.561Z,94840.95
2023-11-27T02:42:27.195Z,94846.50
2023-11-27T02:44:55.662Z,94848.84
2023-11-27T02:47:23.781Z,94847.51
2023-11-27T02:49:52.365Z,94846.19
2023-11-27T02:52:20.641Z,94844.96
2023-11-27T02:54:49.311Z,94841.63
2023-11-27T02:57:19.038Z,94842.48
2023-11-27T02:59:47.377Z,94849.11
2023-11-27T03:02:15.627Z,94847.08
2023-11-27T03:04:44.299Z,94845.80
2023-11-27T03:07:12.619Z,94847.66
2023-11-27T03:09:40.715Z,94846.67
2023-11-27T03:12:09.360Z,94849.16
2023-11-27T03:14:38.301Z,94851.59
2023-11-27T03:17:06.697Z,94849.08
2023-11-27T03:19:47.107Z,94851.79
2023-11-27T03:22:16.764Z,94858.33
2023-11-27T03:24:45.022Z,94861.69
2023-11-27T03:27:14.493Z,94866.73
2023-11-27T03:29:42.961Z,94865.50
2023-11-27T03:32:11.386Z,94867.88
2023-11-27T03:34:39.721Z,94864.82
2023-11-27T03:37:08.220Z,94865.93
2023-11-27T03:39:37.691Z,94863.76
2023-11-27T03:42:06.390Z,94865.55
2023-11-27T03:44:34.824Z,94869.15
2023-11-27T03:47:04.108Z,94868.77
2023-11-27T03:49:34.965Z,94869.30
2023-11-27T03:52:04.972Z,94865.70
2023-11-27T03:54:33.472Z,94869.95
2023-11-27T03:57:01.894Z,94863.25
2023-11-27T03:59:30.272Z,94867.81
2023-11-27T04:01:58.662Z,94868.10
2023-11-27T04:04:27.692Z,94866.43
2023-11-27T04:06:55.950Z,94871.56
2023-11-27T04:09:24.889Z,94874.09
2023-11-27T04:11:53.978Z,94872.30
2023-11-27T04:14:22.273Z,94872.02
2023-11-27T04:16:50.541Z,94873.15
2023-11-27T04:19:18.989Z,94871.64
2023-11-27T04:21:47.076Z,94873.05
2023-11-27T04:24:16.716Z,94874.92
2023-11-27T04:26:45.520Z,94878.27
2023-11-27T04:29:13.843Z,94877.89
2023-11-27T04:31:42.223Z,94886.30
2023-11-27T04:34:11.179Z,94893.08
2023-11-27T04:36:39.313Z,94898.70
2023-11-27T04:39:12.258Z,94899.48
2023-11-27T04:41:43.734Z,94904.20
2023-11-27T04:44:12.014Z,94903.20
2023-11-27T04:46:40.364Z,94902.92
2023-11-27T04:49:11.334Z,94900.08
2023-11-27T04:51:39.628Z,94897.48
2023-11-27T04:54:08.517Z,94891.55
2023-11-27T04:56:36.593Z,94888.23
2023-11-27T04:59:04.829Z,94893.77
2023-11-27T05:01:33.933Z,94889.96
2023-11-27T05:04:02.181Z,94890.02
2023-11-27T05:06:30.668Z,94890.60
2023-11-27T05:08:59.266Z,94890.30
2023-11-27T05:11:27.477Z,94896.61
2023-11-27T05:13:55.677Z,94897.92
2023-11-27T05:16:23.940Z,94899.19
2023-11-27T05:18:52.134Z,94896.23
2023-11-27T05:21:20.348Z,94895.47
2023-11-27T05:23:48.521Z,94902.27
2023-11-27T05:26:17.620Z,94906.08
2023-11-27T05:28:46.192Z,94911.45
2023-11-27T05:31:16.397Z,94914.88
2023-11-27T05:33:44.910Z,94913.31
2023-11-27T05:36:13.730Z,94922.30
2023-11-27T05:38:41.863Z,94921.60
2023-11-27T05:41:13.872Z,94923.06
2023-11-27T05:43:42.336Z,94925.81
2023-11-27T05:46:11.664Z,94931.67
2023-11-27T05:48:40.331Z,94932.52
2023-11-27T05:51:08.601Z,94934.36
2023-11-27T05:53:36.729Z,94936.91
2023-11-27T05:56:05.002Z,94938.64
2023-11-27T05:58:33.101Z,94937.81
2023-11-27T06:01:01.742Z,94944.72
2023-11-27T06:03:30.234Z,94945.26
2023-11-27T06:05:58.867Z,94945.77
2023-11-27T06:08:27.140Z,94946.77
2023-11-27T06:10:55.246Z,94940.81
2023-11-27T06:13:23.468Z,94942.02
2023-11-27T06:15:51.823Z,94934.98
2023-11-27T06:18:20.110Z,94946.13
2023-11-27T06:20:49.620Z,94950.02
2023-11-27T06:23:17.928Z,94945.81
2023-11-27T06:25:45.919Z,94942.10
2023-11-27T06:28:14.742Z,94938.71
2023-11-27T06:30:43.282Z,94932.05
2023-11-27T06:33:11.509Z,94935.52
2023-11-27T06:35:39.686Z,94927.70
2023-11-27T06:38:07.950Z,94926.29
2023-11-27T06:40:45.325Z,94921.11
2023-11-27T06:43:17.322Z,94926.59
2023-11-27T06:45:45.762Z,94920.63
2023-11-27T06:48:14.334Z,94915.75
2023-11-27T06:50:43.175Z,94909.48
2023-11-27T06:53:11.531Z,94911.23
2023-11-27T06:55:39.983Z,94914.85
2023-11-27T06:58:09.172Z,94907.55
2023-11-27T07:00:38.304Z,94916.17
2023-11-27T07:03:07.193Z,94920.09
2023-11-27T07:05:35.867Z,94920.55
2023-11-27T07:08:04.841Z,94924.64
2023-11-27T07:10:34.042Z,94928.64
2023-11-27T07:13:02.540Z,94930.93
2023-11-27T07:15:30.813Z,94928.73
2023-11-27T07:18:13.688Z,94927.49
2023-11-27T07:20:46.827Z,94920.73
2023-11-27T07:23:16.527Z,94917.33
2023-11-27T07:25:45.104Z,94925.27
2023-11-27T07:28:13.409Z,94929.07
2023-11-27T07:30:41.746Z,94923.40
2023-11-27T07:33:10.573Z,94928.95
2023-11-27T07:35:40.489Z,94928.50
2023-11-27T07:38:08.828Z,94930.62
2023-11-27T07:40:37.091Z,94931.16
2023-11-27T07:43:12.358Z,94927.02
2023-11-27T07:45:41.320Z,94925.19
2023-11-27T07:48:09.835Z,94921.10
2023-11-27T07:50:38.106Z,94923.16
2023-11-27T07:53:06.388Z,94918.77
2023-11-27T07:55:34.528Z,94927.36
2023-11-27T07:58:03.985Z,94920.65
2023-11-27T08:00:32.995Z,94922.31
2023-11-27T08:03:01.162Z,94927.49
2023-11-27T08:05:30.794Z,94931.84
2023-11-27T08:07:59.829Z,94932.17
2023-11-27T08:10:30.149Z,94932.30
2023-11-27T08:12:58.663Z,94940.02
2023-11-27T08:15:26.887Z,94926.20
2023-11-27T08:17:56.713Z,94927.58
2023-11-27T08:20:29.652Z,94926.08
2023-11-27T08:22:59.400Z,94931.66
2023-11-27T08:25:28.701Z,94928.00
2023-11-27T08:27:58.653Z,94923.91
2023-11-27T08:30:29.485Z,94924.07
2023-11-27T08:32:59.565Z,94928.54
2023-11-27T08:35:28.377Z,94930.80
2023-11-27T08:37:57.078Z,94932.67
2023-11-27T08:40:25.689Z,94931.14
2023-11-27T08:42:53.978Z,94927.95
2023-11-27T08:45:22.217Z,94922.96
2023-11-27T08:47:53.967Z,94923.92
2023-11-27T08:50:26.879Z,94918.38
2023-11-27T08:52:59.830Z,94918.88
2023-11-27T08:55:31.846Z,94919.91
2023-11-27T08:58:04.905Z,94917.48
2023-11-27T09:00:34.043Z,94914.13
2023-11-27T09:03:03.487Z,94913.94
2023-11-27T09:05:32.901Z,94910.93
2023-11-27T09:08:07.688Z,94909.27
2023-11-27T09:10:38.404Z,94909.33
2023-11-27T09:13:08.044Z,94904.46
2023-11-27T09:15:37.149Z,94903.16
2023-11-27T09:18:05.511Z,94903.38
2023-11-27T09:20:34.474Z,94899.85
2023-11-27T09:23:02.734Z,94895.66
2023-11-27T09:25:31.306Z,94890.58
2023-11-27T09:27:59.997Z,94883.42
2023-11-27T09:30:28.182Z,94886.11
2023-11-27T09:32:56.618Z,94878.94
2023-11-27T09:35:25.147Z,94881.40
2023-11-27T09:37:53.559Z,94882.19
2023-11-27T09:40:23.155Z,94879.77
2023-11-27T09:42:52.324Z,94879.92
2023-11-27T09:45:21.580Z,94881.14
2023-11-27T09:47:51.987Z,94881.14
2023-11-27T09:50:23.238Z,94875.94
2023-11-27T09:52:57.020Z,94867.32
2023-11-27T09:55:27.668Z,94868.52
2023-11-27T09:57:56.085Z,94870.05
2023-11-27T10:00:25.466Z,94867.75
2023-11-27T10:02:53.951Z,94857.17
2023-11-27T10:05:23.500Z,94853.16
2023-11-27T10:07:52.886Z,94854.45
2023-11-27T10:10:27.958Z,94855.63
2023-11-27T10:13:09.641Z,94860.23
2023-11-27T10:15:50.519Z,94860.25
2023-11-27T10:18:20.027Z,94855.45
2023-11-27T10:20:51.889Z,94853.08
2023-11-27T10:23:22.254Z,94847.95
2023-11-27T10:25:59.110Z,94847.98
2023-11-27T10:28:42.906Z,94849.36
2023-11-27T10:31:11.513Z,94849.77
2023-11-27T10:33:41.798Z,94847.71
2023-11-27T10:36:11.313Z,94849.84
2023-11-27T10:38:40.137Z,94852.32
2023-11-27T10:41:08.910Z,94854.56
2023-11-27T10:43:39.300Z,94848.11
2023-11-27T10:46:09.700Z,94852.21
2023-11-27T10:48:44.501Z,94850.98
2023-11-27T10:51:16.779Z,94855.43
2023-11-27T10:53:49.212Z,94854.73
2023-11-27T10:56:20.535Z,94853.20
2023-11-27T10:58:51.858Z,94854.70
2023-11-27T11:01:26.301Z,94851.55
2023-11-27T11:04:02.308Z,94847.60
2023-11-27T11:06:31.383Z,94843.63
2023-11-27T11:09:02.376Z,94841.77
2023-11-27T11:11:31.924Z,94839.77
2023-11-27T11:14:00.896Z,94832.98
2023-11-27T11:16:37.605Z,94829.90
2023-11-27T11:19:13.838Z,94832.71
2023-11-27T11:22:15.549Z,94834.83
2023-11-27T11:25:05.343Z,94822.82
2023-11-27T11:27:40.576Z,94815.89
2023-11-27T11:30:14.349Z,94811.78
2023-11-27T11:32:42.684Z,94805.38
2023-11-27T11:35:12.700Z,94806.17
2023-11-27T11:37:51.396Z,94805.20
2023-11-27T11:40:20.196Z,94804.91
2023-11-27T11:42:51.874Z,94800.58
2023-11-27T11:45:20.673Z,94803.52
2023-11-27T11:48:02.773Z,94798.02
2023-11-27T11:50:42.305Z,94796.33
2023-11-27T11:53:19.755Z,94792.04
2023-11-27T11:55:49.785Z,94788.23
2023-11-27T11:58:21.085Z,94791.38
2023-11-27T12:01:02.479Z,94796.04
2023-11-27T12:03:33.712Z,94792.24
2023-11-27T12:06:09.971Z,94794.52
2023-11-27T12:08:39.304Z,94790.73
2023-11-27T12:11:08.764Z,94785.54
2023-11-27T12:13:37.778Z,94789.14
2023-11-27T12:16:14.569Z,94788.65
2023-11-27T12:18:45.931Z,94789.52
2023-11-27T12:21:25.489Z,94786.02
2023-11-27T12:23:54.877Z,94776.27
2023-11-27T12:26:26.619Z,94775.38
2023-11-27T12:28:56.079Z,94774.30
2023-11-27T12:31:29.548Z,94771.01
2023-11-27T12:34:04.593Z,94769.80
2023-11-27T12:36:33.105Z,94773.73
2023-11-27T12:39:02.323Z,94768.09
2023-11-27T12:41:35.680Z,94757.98
2023-11-27T12:44:17.713Z,94756.02
2023-11-27T12:46:57.232Z,94749.86
2023-11-27T12:49:29.568Z,94740.90
2023-11-27T12:52:08.086Z,94742.63
2023-11-27T12:54:37.686Z,94738.48
2023-11-27T12:57:07.647Z,94733.81
2023-11-27T12:59:41.418Z,94733.10
2023-11-27T13:02:09.997Z,94729.98
2023-11-27T13:04:39.663Z,94729.98
2023-11-27T13:07:14.081Z,94729.64
2023-11-27T13:09:43.850Z,94725.36
2023-11-27T13:12:20.034Z,94718.94
2023-11-27T13:14:52.794Z,94721.54
2023-11-27T13:17:22.309Z,94722.41
2023-11-27T13:19:57.383Z,94724.30
2023-11-27T13:22:34.034Z,94721.39
2023-11-27T13:25:07.553Z,94719.82
2023-11-27T13:27:46.668Z,94718.30
2023-11-27T13:30:28.479Z,94722.29
2023-11-27T13:33:01.285Z,94719.54
2023-11-27T13:35:36.211Z,94718.52
2023-11-27T13:38:07.982Z,94715.94
2023-11-27T13:40:37.061Z,94713.52
2023-11-27T13:43:10.828Z,94710.41
2023-11-27T13:45:39.072Z,94706.43
2023-11-27T13:48:15.166Z,94708.54
2023-11-27T13:50:45.055Z,94711.48
2023-11-27T13:53:25.688Z,94708.20
2023-11-27T13:55:57.510Z,94705.43
2023-11-27T13:58:28.885Z,94708.58
2023-11-27T14:01:02.360Z,94705.64
2023-11-27T14:03:33.714Z,94705.28
2023-11-27T14:06:16.707Z,94707.54
2023-11-27T14:08:53.253Z,94709.80
2023-11-27T14:11:34.048Z,94714.13
2023-11-27T14:14:11.133Z,94716.21
2023-11-27T14:16:46.063Z,94716.37
2023-11-27T14:19:33.802Z,94713.23
2023-11-27T14:22:20.664Z,94714.78
2023-11-27T14:24:54.610Z,94713.56
2023-11-27T14:27:46.882Z,94713.02
2023-11-27T14:30:15.933Z,94709.88
2023-11-27T14:32:44.092Z,94707.94
2023-11-27T14:35:16.472Z,94707.39
2023-11-27T14:37:45.073Z,94704.77
2023-11-27T14:40:22.284Z,94704.41
2023-11-27T14:42:52.041Z,94702.11
2023-11-27T14:45:20.471Z,94698.98
2023-11-27T14:47:48.882Z,94701.39
2023-11-27T14:50:21.989Z,94704.13
2023-11-27T14:52:51.370Z,94704.27
2023-11-27T14:55:21.356Z,94704.76
2023-11-27T14:57:49.871Z,94706.29
2023-11-27T15:00:29.246Z,94705.88
2023-11-27T15:02:58.899Z,94712.77
2023-11-27T15:05:30.602Z,94713.83
2023-11-27T15:07:59.907Z,94714.68
2023-11-27T15:10:28.710Z,94712.26
2023-11-27T15:12:57.106Z,94717.09
2023-11-27T15:15:27.813Z,94715.20
2023-11-27T15:17:56.260Z,94715.73
2023-11-27T15:20:28.268Z,94712.65
2023-11-27T15:22:58.355Z,94712.19
2023-11-27T15:25:26.660Z,94707.34
2023-11-27T15:27:55.142Z,94708.73
2023-11-27T15:30:25.727Z,94702.21
2023-11-27T15:32:54.240Z,94701.23
2023-11-27T15:35:26.074Z,94697.82
2023-11-27T15:37:54.775Z,94695.61
2023-11-27T15:40:29.695Z,94699.59
2023-11-27T15:42:58.661Z,94696.98
2023-11-27T15:45:28.494Z,94703.67
2023-11-27T15:47:58.041Z,94698.45
2023-11-27T15:50:33.835Z,94699.84
2023-11-27T15:53:02.531Z,94697.79
2023-11-27T15:55:31.070Z,94697.39
2023-11-27T15:58:00.699Z,94693.39
2023-11-27T16:00:31.526Z,94695.42
2023-11-27T16:03:00.142Z,94695.26
2023-11-27T16:05:29.902Z,94691.42
2023-11-27T16:08:01.244Z,94690.39
2023-11-27T16:10:31.072Z,94688.61
2023-11-27T16:12:59.691Z,94689.73
2023-11-27T16:15:28.068Z,94688.97
2023-11-27T16:18:00.793Z,94694.27
2023-11-27T16:20:31.578Z,94691.31
2023-11-27T16:23:00.650Z,94693.85
2023-11-27T16:25:29.719Z,94695.36
2023-11-27T16:27:58.138Z,94687.36
2023-11-27T16:30:27.439Z,94688.17
2023-11-27T16:32:57.223Z,94687.13
2023-11-27T16:35:25.405Z,94686.74
2023-11-27T16:37:53.554Z,94688.96
2023-11-27T16:40:22.198Z,94693.98
2023-11-27T16:42:53.903Z,94687.58
2023-11-27T16:45:25.672Z,94684.77
2023-11-27T16:47:58.711Z,94680.45
2023-11-27T16:50:28.799Z,94675.45
2023-11-27T16:52:57.936Z,94671.82
2023-11-27T16:55:29.763Z,94670.42
2023-11-27T16:58:07.021Z,94666.41
2023-11-27T17:00:38.318Z,94663.97
2023-11-27T17:03:08.674Z,94668.98
2023-11-27T17:05:39.208Z,94659.29
2023-11-27T17:08:20.338Z,94661.02
2023-11-27T17:10:51.821Z,94657.38
2023-11-27T17:13:20.450Z,94662.35
2023-11-27T17:15:49.494Z,94669.39
2023-11-27T17:18:17.740Z,94661.10
2023-11-27T17:20:48.813Z,94657.48
2023-11-27T17:23:18.342Z,94647.69
2023-11-27T17:25:48.000Z,94653.25
2023-11-27T17:28:16.492Z,94654.55
2023-11-27T17:30:45.432Z,94649.43
2023-11-27T17:33:15.710Z,94651.38
2023-11-27T17:35:44.415Z,94652.18
2023-11-27T17:38:13.228Z,94649.80
2023-11-27T17:40:42.510Z,94645.90
2023-11-27T17:43:14.093Z,94636.63
2023-11-27T17:45:43.529Z,94641.14
2023-11-27T17:48:12.096Z,94646.69
2023-11-27T17:50:40.293Z,94641.87
2023-11-27T17:53:08.700Z,94639.67
2023-11-27T17:55:45.539Z,94635.89
2023-11-27T17:58:19.817Z,94637.64
2023-11-27T18:00:50.916Z,94639.63
2023-11-27T18:03:19.096Z,94636.17
2023-11-27T18:05:47.366Z,94637.02
2023-11-27T18:08:16.033Z,94636.08
2023-11-27T18:10:45.916Z,94634.79
2023-11-27T18:13:14.367Z,94630.61
2023-11-27T18:15:42.526Z,94636.94
2023-11-27T18:18:10.878Z,94637.89
2023-11-27T18:20:39.058Z,94636.60
2023-11-27T18:23:10.886Z,94633.05
2023-11-27T18:25:39.827Z,94634.39
2023-11-27T18:28:08.329Z,94630.31
2023-11-27T18:30:36.881Z,94629.52
2023-11-27T18:33:05.261Z,94631.89
2023-11-27T18:35:35.440Z,94624.91
2023-11-27T18:38:03.837Z,94622.82
2023-11-27T18:40:32.132Z,94619.34
2023-11-27T18:43:02.247Z,94625.86
2023-11-27T18:45:30.444Z,94624.29
2023-11-27T18:48:01.848Z,94627.21
2023-11-27T18:50:30.983Z,94630.67
2023-11-27T18:53:01.013Z,94633.60
2023-11-27T18:55:29.897Z,94632.90
2023-11-27T18:58:01.044Z,94629.04
2023-11-27T19:00:29.190Z,94628.32
2023-11-27T19:02:57.484Z,94627.64
2023-11-27T19:05:26.223Z,94624.36
2023-11-27T19:07:54.482Z,94624.84
2023-11-27T19:10:25.137Z,94629.50
2023-11-27T19:12:54.074Z,94628.27
2023-11-27T19:15:24.664Z,94627.96
2023-11-27T19:17:53.014Z,94624.53
2023-11-27T19:20:24.281Z,94624.89
2023-11-27T19:22:52.417Z,94628.90
2023-11-27T19:25:20.836Z,94627.86
2023-11-27T19:27:49.425Z,94628.15
2023-11-27T19:30:18.553Z,94629.67
2023-11-27T19:32:49.380Z,94627.36
2023-11-27T19:35:19.290Z,94624.73
2023-11-27T19:37:47.500Z,94621.48
2023-11-27T19:40:16.028Z,94620.04
2023-11-27T19:42:44.238Z,94613.40
2023-11-27T19:45:14.569Z,94608.14
2023-11-27T19:47:42.876Z,94605.44
2023-11-27T19:50:11.314Z,94600.05
2023-11-27T19:52:40.065Z,94602.26
2023-11-27T19:55:08.828Z,94595.11
2023-11-27T19:57:36.990Z,94598.34
2023-11-27T20:00:11.784Z,94584.17
2023-11-27T20:02:42.712Z,94589.77
2023-11-27T20:05:11.708Z,94591.77
2023-11-27T20:07:40.484Z,94586.08
2023-11-27T20:10:10.999Z,94585.05
2023-11-27T20:12:39.255Z,94581.55
2023-11-27T20:15:11.755Z,94582.23
2023-11-27T20:17:41.661Z,94570.89
2023-11-27T20:20:20.077Z,94565.92
2023-11-27T20:22:49.110Z,94560.08
2023-11-27T20:25:17.482Z,94554.27
2023-11-27T20:27:48.849Z,94559.95
2023-11-27T20:30:17.573Z,94550.05
2023-11-27T20:32:46.371Z,94551.73
2023-11-27T20:35:14.669Z,94549.67
2023-11-27T20:37:42.786Z,94551.86
2023-11-27T20:40:12.025Z,94547.73
2023-11-27T20:42:40.958Z,94543.55
2023-11-27T20:45:10.387Z,94539.00
2023-11-27T20:47:38.785Z,94536.21
2023-11-27T20:50:07.500Z,94527.04
2023-11-27T20:52:35.706Z,94532.91
2023-11-27T20:55:08.021Z,94527.34
2023-11-27T20:57:38.289Z,94520.58
2023-11-27T21:00:11.921Z,94518.09
2023-11-27T21:02:40.821Z,94524.42
2023-11-27T21:05:11.389Z,94515.33
2023-11-27T21:07:39.582Z,94514.98
2023-11-27T21:10:12.737Z,94514.58
2023-11-27T21:12:43.263Z,94513.80
2023-11-27T21:15:12.322Z,94505.14
2023-11-27T21:17:40.893Z,94503.05
2023-11-27T21:20:13.798Z,94504.25
2023-11-27T21:22:43.845Z,94504.70
2023-11-27T21:25:18.731Z,94502.36
2023-11-27T21:27:51.712Z,94501.98
2023-11-27T21:30:20.614Z,94499.17
2023-11-27T21:32:50.586Z,94498.73
2023-11-27T21:35:19.406Z,94501.20
2023-11-27T21:37:48.452Z,94499.20
2023-11-27T21:40:20.609Z,94501.14
2023-11-27T21:42:48.731Z,94495.14
2023-11-27T21:45:16.981Z,94495.83
2023-11-27T21:47:45.226Z,94489.87
2023-11-27T21:50:13.510Z,94491.61
2023-11-27T21:52:41.806Z,94496.14
2023-11-27T21:55:10.513Z,94491.16
2023-11-27T21:57:39.846Z,94494.80
2023-11-27T22:00:11.422Z,94489.14
2023-11-27T22:02:42.715Z,94486.26
2023-11-27T22:05:11.242Z,94479.03
2023-11-27T22:07:40.436Z,94473.77
2023-11-27T22:10:11.034Z,94470.23
2023-11-27T22:12:40.338Z,94463.24
2023-11-27T22:15:09.371Z,94460.39
2023-11-27T22:17:37.525Z,94448.92
2023-11-27T22:20:06.464Z,94441.59
2023-11-27T22:22:36.090Z,94432.23
2023-11-27T22:25:05.047Z,94417.32
2023-11-27T22:27:33.612Z,94414.44
2023-11-27T22:30:01.858Z,94431.88
2023-11-27T22:32:30.743Z,94432.98
2023-11-27T22:34:59.069Z,94429.09
2023-11-27T22:37:27.440Z,94422.41
2023-11-27T22:39:56.020Z,94418.73
2023-11-27T22:42:24.335Z,94412.23
2023-11-27T22:44:52.683Z,94402.27
2023-11-27T22:47:21.012Z,94396.30
2023-11-27T22:49:49.257Z,94392.17
2023-11-27T22:52:17.529Z,94386.67
2023-11-27T22:54:45.997Z,94379.44
2023-11-27T22:57:14.054Z,94375.44
2023-11-27T22:59:43.247Z,94370.95
2023-11-27T23:02:13.055Z,94369.77
2023-11-27T23:04:42.060Z,94368.21
2023-11-27T23:07:10.417Z,94370.62
2023-11-27T23:09:38.533Z,94375.06
2023-11-27T23:12:07.299Z,94375.04
2023-11-27T23:14:35.501Z,94369.14
2023-11-27T23:17:04.026Z,94362.74
2023-11-27T23:19:32.393Z,94362.73
2023-11-27T23:22:00.881Z,94366.52
2023-11-27T23:24:28.973Z,94354.91
2023-11-27T23:26:57.237Z,94351.45
2023-11-27T23:29:25.383Z,94351.94
2023-11-27T23:31:56.927Z,94346.37
2023-11-27T23:34:27.536Z,94348.06
2023-11-27T23:36:55.752Z,94347.68
2023-11-27T23:39:24.013Z,94342.48
2023-11-27T23:41:54.530Z,94346.53
2023-11-27T23:44:22.902Z,94347.05
2023-11-27T23:46:52.727Z,94338.95
2023-11-27T23:49:21.578Z,94338.95
2023-11-27T23:51:52.219Z,94327.40
2023-11-27T23:54:20.420Z,94332.05
2023-11-27T23:56:48.847Z,94341.54
2023-11-27T23:59:17.261Z,94333.66
